sensor_id;sensor_type;location;lat;lon;timestamp;temperature;humidity
40255;DHT22;25973;52.368;4.940;2023-04-01T00:02:16;11.70;99.90
40255;DHT22;25973;52.368;4.940;2023-04-01T00:04:42;11.60;99.90
40255;DHT22;25973;52.368;4.940;2023-04-01T00:07:08;11.60;99.90
40255;DHT22;25973;52.368;4.940;2023-04-01T00:09:34;11.60;99.90
40255;DHT22;25973;52.368;4.940;2023-04-01T00:12:00;11.60;99.90
40255;DHT22;25973;52.368;4.940;2023-04-01T00:14:25;11.60;99.90
40255;DHT22;25973;52.368;4.940;2023-04-01T00:16:51;11.50;99.90
40255;DHT22;25973;52.368;4.940;2023-04-01T00:19:17;11.50;99.90
40255;DHT22;25973;52.368;4.940;2023-04-01T00:21:43;11.60;99.90
40255;DHT22;25973;52.368;4.940;2023-04-01T00:24:08;11.60;99.90
40255;DHT22;25973;52.368;4.940;2023-04-01T00:26:34;11.60;99.90
40255;DHT22;25973;52.368;4.940;2023-04-01T00:28:59;11.60;99.90
40255;DHT22;25973;52.368;4.940;2023-04-01T00:31:25;11.60;99.90
40255;DHT22;25973;52.368;4.940;2023-04-01T00:33:51;11.70;99.90
40255;DHT22;25973;52.368;4.940;2023-04-01T00:36:18;11.60;99.90
40255;DHT22;25973;52.368;4.940;2023-04-01T00:38:44;11.60;99.90
40255;DHT22;25973;52.368;4.940;2023-04-01T00:41:10;11.60;99.90
40255;DHT22;25973;52.368;4.940;2023-04-01T00:43:39;11.60;99.90
40255;DHT22;25973;52.368;4.940;2023-04-01T00:46:05;11.50;99.90
40255;DHT22;25973;52.368;4.940;2023-04-01T00:48:32;11.50;99.90
40255;DHT22;25973;52.368;4.940;2023-04-01T00:53:27;11.50;99.90
40255;DHT22;25973;52.368;4.940;2023-04-01T00:56:14;11.50;99.90
40255;DHT22;25973;52.368;4.940;2023-04-01T00:58:40;11.50;99.90
40255;DHT22;25973;52.368;4.940;2023-04-01T01:01:06;11.50;99.90
40255;DHT22;25973;52.368;4.940;2023-04-01T01:03:33;11.40;99.90
40255;DHT22;25973;52.368;4.940;2023-04-01T01:10:50;11.40;99.90
40255;DHT22;25973;52.368;4.940;2023-04-01T01:13:34;11.50;99.90
40255;DHT22;25973;52.368;4.940;2023-04-01T01:23:39;11.50;99.90
40255;DHT22;25973;52.368;4.940;2023-04-01T01:31:37;11.50;99.90
40255;DHT22;25973;52.368;4.940;2023-04-01T01:34:06;11.50;99.90
40255;DHT22;25973;52.368;4.940;2023-04-01T01:36:35;11.50;99.90
40255;DHT22;25973;52.368;4.940;2023-04-01T01:39:03;11.50;99.90
40255;DHT22;25973;52.368;4.940;2023-04-01T01:41:30;11.40;99.90
40255;DHT22;25973;52.368;4.940;2023-04-01T01:43:56;11.40;99.90
40255;DHT22;25973;52.368;4.940;2023-04-01T01:46:22;11.40;99.90
40255;DHT22;25973;52.368;4.940;2023-04-01T01:48:49;11.40;99.90
40255;DHT22;25973;52.368;4.940;2023-04-01T01:51:16;11.40;99.90
40255;DHT22;25973;52.368;4.940;2023-04-01T01:53:41;11.30;99.90
40255;DHT22;25973;52.368;4.940;2023-04-01T01:56:07;11.30;99.90
40255;DHT22;25973;52.368;4.940;2023-04-01T01:58:37;11.30;99.90
40255;DHT22;25973;52.368;4.940;2023-04-01T02:01:06;11.30;99.90
40255;DHT22;25973;52.368;4.940;2023-04-01T02:03:34;11.30;99.90
40255;DHT22;25973;52.368;4.940;2023-04-01T02:06:01;11.30;99.90
40255;DHT22;25973;52.368;4.940;2023-04-01T02:08:29;11.30;99.90
40255;DHT22;25973;52.368;4.940;2023-04-01T02:11:00;11.30;99.90
40255;DHT22;25973;52.368;4.940;2023-04-01T02:13:47;11.30;99.90
40255;DHT22;25973;52.368;4.940;2023-04-01T02:16:15;11.30;99.90
40255;DHT22;25973;52.368;4.940;2023-04-01T02:18:42;11.30;99.90
40255;DHT22;25973;52.368;4.940;2023-04-01T02:21:08;11.30;99.90
40255;DHT22;25973;52.368;4.940;2023-04-01T02:23:35;11.40;99.90
40255;DHT22;25973;52.368;4.940;2023-04-01T02:26:01;11.40;99.90
40255;DHT22;25973;52.368;4.940;2023-04-01T02:28:27;11.40;99.90
40255;DHT22;25973;52.368;4.940;2023-04-01T02:30:53;11.30;99.90
40255;DHT22;25973;52.368;4.940;2023-04-01T02:33:19;11.30;99.90
40255;DHT22;25973;52.368;4.940;2023-04-01T02:35:45;11.30;99.90
40255;DHT22;25973;52.368;4.940;2023-04-01T02:38:11;11.30;99.90
40255;DHT22;25973;52.368;4.940;2023-04-01T02:40:44;11.40;99.90
40255;DHT22;25973;52.368;4.940;2023-04-01T02:43:09;11.30;99.90
40255;DHT22;25973;52.368;4.940;2023-04-01T02:45:35;11.30;99.90
40255;DHT22;25973;52.368;4.940;2023-04-01T02:48:00;11.40;99.90
40255;DHT22;25973;52.368;4.940;2023-04-01T02:50:26;11.40;99.90
40255;DHT22;25973;52.368;4.940;2023-04-01T02:52:51;11.40;99.90
40255;DHT22;25973;52.368;4.940;2023-04-01T02:55:17;11.40;99.90
40255;DHT22;25973;52.368;4.940;2023-04-01T02:57:42;11.40;99.90
40255;DHT22;25973;52.368;4.940;2023-04-01T03:00:08;11.40;99.90
40255;DHT22;25973;52.368;4.940;2023-04-01T03:02:37;11.30;99.90
40255;DHT22;25973;52.368;4.940;2023-04-01T03:05:03;11.40;99.90
40255;DHT22;25973;52.368;4.940;2023-04-01T03:07:28;11.40;99.90
40255;DHT22;25973;52.368;4.940;2023-04-01T03:09:54;11.40;99.90
40255;DHT22;25973;52.368;4.940;2023-04-01T03:12:19;11.30;99.90
40255;DHT22;25973;52.368;4.940;2023-04-01T03:14:45;11.30;99.90
40255;DHT22;25973;52.368;4.940;2023-04-01T03:17:10;11.30;99.90
40255;DHT22;25973;52.368;4.940;2023-04-01T03:19:36;11.30;99.90
40255;DHT22;25973;52.368;4.940;2023-04-01T03:22:01;11.30;99.90
40255;DHT22;25973;52.368;4.940;2023-04-01T03:24:26;11.30;99.90
40255;DHT22;25973;52.368;4.940;2023-04-01T03:26:52;11.30;99.90
40255;DHT22;25973;52.368;4.940;2023-04-01T03:29:17;11.30;99.90
40255;DHT22;25973;52.368;4.940;2023-04-01T03:31:43;11.30;99.90
40255;DHT22;25973;52.368;4.940;2023-04-01T03:34:08;11.20;99.90
40255;DHT22;25973;52.368;4.940;2023-04-01T03:36:34;11.20;99.90
40255;DHT22;25973;52.368;4.940;2023-04-01T03:38:59;11.30;99.90
40255;DHT22;25973;52.368;4.940;2023-04-01T03:41:25;11.30;99.90
40255;DHT22;25973;52.368;4.940;2023-04-01T03:43:50;11.30;99.90
40255;DHT22;25973;52.368;4.940;2023-04-01T03:46:19;11.30;99.90
40255;DHT22;25973;52.368;4.940;2023-04-01T03:48:44;11.30;99.90
40255;DHT22;25973;52.368;4.940;2023-04-01T03:51:10;11.30;99.90
40255;DHT22;25973;52.368;4.940;2023-04-01T03:53:36;11.20;99.90
40255;DHT22;25973;52.368;4.940;2023-04-01T03:56:05;11.30;99.90
40255;DHT22;25973;52.368;4.940;2023-04-01T03:58:31;11.30;99.90
40255;DHT22;25973;52.368;4.940;2023-04-01T04:00:57;11.30;99.90
40255;DHT22;25973;52.368;4.940;2023-04-01T04:03:22;11.30;99.90
40255;DHT22;25973;52.368;4.940;2023-04-01T04:05:48;11.30;99.90
40255;DHT22;25973;52.368;4.940;2023-04-01T04:08:14;11.30;99.90
40255;DHT22;25973;52.368;4.940;2023-04-01T04:10:40;11.30;99.90
40255;DHT22;25973;52.368;4.940;2023-04-01T04:13:06;11.30;99.90
40255;DHT22;25973;52.368;4.940;2023-04-01T04:15:32;11.30;99.90
40255;DHT22;25973;52.368;4.940;2023-04-01T04:17:57;11.30;99.90
40255;DHT22;25973;52.368;4.940;2023-04-01T04:20:22;11.30;99.90
40255;DHT22;25973;52.368;4.940;2023-04-01T04:22:48;11.30;99.90
40255;DHT22;25973;52.368;4.940;2023-04-01T04:25:13;11.20;99.90
40255;DHT22;25973;52.368;4.940;2023-04-01T04:27:39;11.30;99.90
40255;DHT22;25973;52.368;4.940;2023-04-01T04:30:05;11.30;99.90
40255;DHT22;25973;52.368;4.940;2023-04-01T04:32:30;11.30;99.90
40255;DHT22;25973;52.368;4.940;2023-04-01T04:34:56;11.30;99.90
40255;DHT22;25973;52.368;4.940;2023-04-01T04:37:21;11.30;99.90
40255;DHT22;25973;52.368;4.940;2023-04-01T04:39:47;11.30;99.90
40255;DHT22;25973;52.368;4.940;2023-04-01T04:42:12;11.30;99.90
40255;DHT22;25973;52.368;4.940;2023-04-01T04:44:38;11.30;99.90
40255;DHT22;25973;52.368;4.940;2023-04-01T04:47:04;11.30;99.90
40255;DHT22;25973;52.368;4.940;2023-04-01T04:49:29;11.30;99.90
40255;DHT22;25973;52.368;4.940;2023-04-01T04:51:55;11.30;99.90
40255;DHT22;25973;52.368;4.940;2023-04-01T04:54:20;11.30;99.90
40255;DHT22;25973;52.368;4.940;2023-04-01T04:56:46;11.30;99.90
40255;DHT22;25973;52.368;4.940;2023-04-01T04:59:11;11.30;99.90
40255;DHT22;25973;52.368;4.940;2023-04-01T05:01:37;11.30;99.90
40255;DHT22;25973;52.368;4.940;2023-04-01T05:04:03;11.30;99.90
40255;DHT22;25973;52.368;4.940;2023-04-01T05:06:28;11.30;99.90
40255;DHT22;25973;52.368;4.940;2023-04-01T05:08:57;11.30;99.90
40255;DHT22;25973;52.368;4.940;2023-04-01T05:11:22;11.30;99.90
40255;DHT22;25973;52.368;4.940;2023-04-01T05:13:48;11.30;99.90
40255;DHT22;25973;52.368;4.940;2023-04-01T05:16:16;11.30;99.90
40255;DHT22;25973;52.368;4.940;2023-04-01T05:18:45;11.30;99.90
40255;DHT22;25973;52.368;4.940;2023-04-01T05:21:11;11.30;99.90
40255;DHT22;25973;52.368;4.940;2023-04-01T05:23:37;11.30;99.90
40255;DHT22;25973;52.368;4.940;2023-04-01T05:26:12;11.30;99.90
40255;DHT22;25973;52.368;4.940;2023-04-01T05:28:38;11.30;99.90
40255;DHT22;25973;52.368;4.940;2023-04-01T05:31:05;11.30;99.90
40255;DHT22;25973;52.368;4.940;2023-04-01T05:33:30;11.30;99.90
40255;DHT22;25973;52.368;4.940;2023-04-01T05:35:56;11.20;99.90
40255;DHT22;25973;52.368;4.940;2023-04-01T05:38:22;11.30;99.90
40255;DHT22;25973;52.368;4.940;2023-04-01T05:40:47;11.30;99.90
40255;DHT22;25973;52.368;4.940;2023-04-01T05:43:13;11.30;99.90
40255;DHT22;25973;52.368;4.940;2023-04-01T05:45:38;11.20;99.90
40255;DHT22;25973;52.368;4.940;2023-04-01T05:48:04;11.20;99.90
40255;DHT22;25973;52.368;4.940;2023-04-01T05:50:30;11.20;99.90
40255;DHT22;25973;52.368;4.940;2023-04-01T05:52:55;11.30;99.90
40255;DHT22;25973;52.368;4.940;2023-04-01T05:55:21;11.20;99.90
40255;DHT22;25973;52.368;4.940;2023-04-01T05:57:46;11.20;99.90
40255;DHT22;25973;52.368;4.940;2023-04-01T06:00:13;11.20;99.90
40255;DHT22;25973;52.368;4.940;2023-04-01T06:02:39;11.20;99.90
40255;DHT22;25973;52.368;4.940;2023-04-01T06:05:14;11.20;99.90
40255;DHT22;25973;52.368;4.940;2023-04-01T06:07:40;11.20;99.90
40255;DHT22;25973;52.368;4.940;2023-04-01T06:10:13;11.20;99.90
40255;DHT22;25973;52.368;4.940;2023-04-01T06:15:13;11.10;99.90
40255;DHT22;25973;52.368;4.940;2023-04-01T06:18:45;11.10;99.90
40255;DHT22;25973;52.368;4.940;2023-04-01T06:23:24;11.10;99.90
40255;DHT22;25973;52.368;4.940;2023-04-01T06:26:05;11.10;99.90
40255;DHT22;25973;52.368;4.940;2023-04-01T06:31:46;11.10;99.90
40255;DHT22;25973;52.368;4.940;2023-04-01T06:33:55;11.10;99.90
40255;DHT22;25973;52.368;4.940;2023-04-01T06:39:00;11.10;99.90
40255;DHT22;25973;52.368;4.940;2023-04-01T06:46:44;11.20;99.90
40255;DHT22;25973;52.368;4.940;2023-04-01T06:54:15;11.20;99.90
40255;DHT22;25973;52.368;4.940;2023-04-01T06:56:42;11.20;99.90
40255;DHT22;25973;52.368;4.940;2023-04-01T06:59:18;11.20;99.90
40255;DHT22;25973;52.368;4.940;2023-04-01T07:01:49;11.20;99.90
40255;DHT22;25973;52.368;4.940;2023-04-01T07:04:26;11.20;99.90
40255;DHT22;25973;52.368;4.940;2023-04-01T07:06:53;11.20;99.90
40255;DHT22;25973;52.368;4.940;2023-04-01T07:12:25;11.20;99.90
40255;DHT22;25973;52.368;4.940;2023-04-01T07:14:52;11.20;99.90
40255;DHT22;25973;52.368;4.940;2023-04-01T07:17:22;11.30;99.90
40255;DHT22;25973;52.368;4.940;2023-04-01T07:19:50;11.30;99.90
40255;DHT22;25973;52.368;4.940;2023-04-01T07:24:44;11.30;99.90
40255;DHT22;25973;52.368;4.940;2023-04-01T07:27:10;11.30;99.90
40255;DHT22;25973;52.368;4.940;2023-04-01T07:29:36;11.40;99.90
40255;DHT22;25973;52.368;4.940;2023-04-01T07:35:11;11.30;99.90
40255;DHT22;25973;52.368;4.940;2023-04-01T07:42:55;11.50;99.90
40255;DHT22;25973;52.368;4.940;2023-04-01T07:45:36;11.50;99.90
40255;DHT22;25973;52.368;4.940;2023-04-01T07:50:37;11.50;99.90
40255;DHT22;25973;52.368;4.940;2023-04-01T07:55:48;11.50;99.90
40255;DHT22;25973;52.368;4.940;2023-04-01T08:01:02;11.70;99.90
40255;DHT22;25973;52.368;4.940;2023-04-01T08:08:46;11.70;99.90
40255;DHT22;25973;52.368;4.940;2023-04-01T08:11:21;11.80;99.90
40255;DHT22;25973;52.368;4.940;2023-04-01T08:16:32;11.80;99.90
40255;DHT22;25973;52.368;4.940;2023-04-01T08:21:32;11.80;99.90
40255;DHT22;25973;52.368;4.940;2023-04-01T08:23:58;11.90;99.90
40255;DHT22;25973;52.368;4.940;2023-04-01T08:26:35;11.90;99.90
40255;DHT22;25973;52.368;4.940;2023-04-01T08:37:19;12.00;99.90
40255;DHT22;25973;52.368;4.940;2023-04-01T08:58:31;12.20;99.90
40255;DHT22;25973;52.368;4.940;2023-04-01T09:08:58;12.50;99.90
40255;DHT22;25973;52.368;4.940;2023-04-01T09:11:38;12.60;99.90
40255;DHT22;25973;52.368;4.940;2023-04-01T09:14:08;12.50;99.90
40255;DHT22;25973;52.368;4.940;2023-04-01T09:21:46;12.60;99.90
40255;DHT22;25973;52.368;4.940;2023-04-01T09:32:08;12.80;99.90
40255;DHT22;25973;52.368;4.940;2023-04-01T09:39:42;12.90;99.90
40255;DHT22;25973;52.368;4.940;2023-04-01T09:44:59;12.90;99.90
40255;DHT22;25973;52.368;4.940;2023-04-01T09:47:49;12.90;99.90
40255;DHT22;25973;52.368;4.940;2023-04-01T10:03:46;12.70;99.90
40255;DHT22;25973;52.368;4.940;2023-04-01T10:14:46;12.70;99.90
40255;DHT22;25973;52.368;4.940;2023-04-01T10:17:26;12.70;99.90
40255;DHT22;25973;52.368;4.940;2023-04-01T10:20:08;12.70;99.90
40255;DHT22;25973;52.368;4.940;2023-04-01T10:25:05;12.80;99.90
40255;DHT22;25973;52.368;4.940;2023-04-01T10:35:45;13.10;99.90
40255;DHT22;25973;52.368;4.940;2023-04-01T10:40:47;13.30;99.90
40255;DHT22;25973;52.368;4.940;2023-04-01T10:45:51;13.50;99.90
40255;DHT22;25973;52.368;4.940;2023-04-01T10:48:45;13.60;99.90
40255;DHT22;25973;52.368;4.940;2023-04-01T11:12:13;13.70;99.90
40255;DHT22;25973;52.368;4.940;2023-04-01T11:19:46;13.60;99.90
40255;DHT22;25973;52.368;4.940;2023-04-01T11:22:35;13.60;99.90
40255;DHT22;25973;52.368;4.940;2023-04-01T11:46:28;13.80;99.90
40255;DHT22;25973;52.368;4.940;2023-04-01T12:10:32;13.70;99.90
40255;DHT22;25973;52.368;4.940;2023-04-01T12:15:36;13.70;99.90
40255;DHT22;25973;52.368;4.940;2023-04-01T12:18:17;13.70;99.90
40255;DHT22;25973;52.368;4.940;2023-04-01T12:20:48;13.70;99.90
40255;DHT22;25973;52.368;4.940;2023-04-01T12:23:32;13.70;99.90
40255;DHT22;25973;52.368;4.940;2023-04-01T12:31:14;13.60;99.90
40255;DHT22;25973;52.368;4.940;2023-04-01T12:33:50;13.60;99.90
40255;DHT22;25973;52.368;4.940;2023-04-01T12:39:13;13.70;99.90
40255;DHT22;25973;52.368;4.940;2023-04-01T12:44:15;13.80;99.90
40255;DHT22;25973;52.368;4.940;2023-04-01T12:46:50;13.70;99.90
40255;DHT22;25973;52.368;4.940;2023-04-01T13:10:49;13.20;99.90
40255;DHT22;25973;52.368;4.940;2023-04-01T13:13:23;13.10;99.90
40255;DHT22;25973;52.368;4.940;2023-04-01T13:16:54;13.00;99.90
40255;DHT22;25973;52.368;4.940;2023-04-01T13:18:58;13.00;99.90
40255;DHT22;25973;52.368;4.940;2023-04-01T13:21:34;12.90;99.90
40255;DHT22;25973;52.368;4.940;2023-04-01T13:24:19;12.80;99.90
40255;DHT22;25973;52.368;4.940;2023-04-01T13:34:25;12.70;99.90
40255;DHT22;25973;52.368;4.940;2023-04-01T13:36:55;12.70;99.90
40255;DHT22;25973;52.368;4.940;2023-04-01T13:42:16;12.60;99.90
40255;DHT22;25973;52.368;4.940;2023-04-01T13:44:55;12.60;99.90
40255;DHT22;25973;52.368;4.940;2023-04-01T13:47:32;12.50;99.90
40255;DHT22;25973;52.368;4.940;2023-04-01T13:50:17;12.40;99.90
40255;DHT22;25973;52.368;4.940;2023-04-01T13:52:54;12.40;99.90
40255;DHT22;25973;52.368;4.940;2023-04-01T14:03:48;12.20;99.90
40255;DHT22;25973;52.368;4.940;2023-04-01T14:06:29;12.10;99.90
40255;DHT22;25973;52.368;4.940;2023-04-01T14:09:04;12.00;99.90
40255;DHT22;25973;52.368;4.940;2023-04-01T14:14:13;11.90;99.90
40255;DHT22;25973;52.368;4.940;2023-04-01T14:19:28;11.90;99.90
40255;DHT22;25973;52.368;4.940;2023-04-01T14:21:58;11.90;99.90
40255;DHT22;25973;52.368;4.940;2023-04-01T14:27:12;12.00;99.90
40255;DHT22;25973;52.368;4.940;2023-04-01T14:29:58;11.90;99.90
40255;DHT22;25973;52.368;4.940;2023-04-01T14:32:33;11.90;99.90
40255;DHT22;25973;52.368;4.940;2023-04-01T14:35:16;11.90;99.90
40255;DHT22;25973;52.368;4.940;2023-04-01T14:51:10;11.90;99.90
40255;DHT22;25973;52.368;4.940;2023-04-01T14:53:43;11.80;99.90
40255;DHT22;25973;52.368;4.940;2023-04-01T14:56:11;11.70;99.90
40255;DHT22;25973;52.368;4.940;2023-04-01T14:58:43;11.70;99.90
40255;DHT22;25973;52.368;4.940;2023-04-01T15:06:59;11.60;99.90
40255;DHT22;25973;52.368;4.940;2023-04-01T15:09:07;11.60;99.90
40255;DHT22;25973;52.368;4.940;2023-04-01T15:21:50;11.50;99.90
40255;DHT22;25973;52.368;4.940;2023-04-01T15:39:51;11.40;99.90
40255;DHT22;25973;52.368;4.940;2023-04-01T15:47:34;11.40;99.90
40255;DHT22;25973;52.368;4.940;2023-04-01T15:58:00;11.40;99.90
40255;DHT22;25973;52.368;4.940;2023-04-01T16:00:31;11.40;99.90
40255;DHT22;25973;52.368;4.940;2023-04-01T16:08:44;11.40;99.90
40255;DHT22;25973;52.368;4.940;2023-04-01T16:11:25;11.30;99.90
40255;DHT22;25973;52.368;4.940;2023-04-01T16:13:55;11.20;99.90
40255;DHT22;25973;52.368;4.940;2023-04-01T16:21:38;11.20;99.90
40255;DHT22;25973;52.368;4.940;2023-04-01T16:24:22;11.20;99.90
40255;DHT22;25973;52.368;4.940;2023-04-01T16:26:51;11.20;99.90
40255;DHT22;25973;52.368;4.940;2023-04-01T16:31:52;11.10;99.90
40255;DHT22;25973;52.368;4.940;2023-04-01T16:44:31;11.00;99.90
40255;DHT22;25973;52.368;4.940;2023-04-01T16:47:09;11.00;99.90
40255;DHT22;25973;52.368;4.940;2023-04-01T16:49:45;11.00;99.90
40255;DHT22;25973;52.368;4.940;2023-04-01T16:54:45;10.70;99.90
40255;DHT22;25973;52.368;4.940;2023-04-01T16:59:45;10.50;99.90
40255;DHT22;25973;52.368;4.940;2023-04-01T17:02:16;10.50;99.90
40255;DHT22;25973;52.368;4.940;2023-04-01T17:10:14;10.30;99.90
40255;DHT22;25973;52.368;4.940;2023-04-01T17:22:54;10.20;99.90
40255;DHT22;25973;52.368;4.940;2023-04-01T17:27:52;10.20;99.90
40255;DHT22;25973;52.368;4.940;2023-04-01T17:35:48;10.10;99.90
40255;DHT22;25973;52.368;4.940;2023-04-01T17:48:32;10.00;99.90
40255;DHT22;25973;52.368;4.940;2023-04-01T18:06:30;10.00;99.90
40255;DHT22;25973;52.368;4.940;2023-04-01T18:09:03;9.90;99.90
40255;DHT22;25973;52.368;4.940;2023-04-01T18:16:58;9.90;99.90
40255;DHT22;25973;52.368;4.940;2023-04-01T18:21:56;9.90;99.90
40255;DHT22;25973;52.368;4.940;2023-04-01T18:24:40;9.90;99.90
40255;DHT22;25973;52.368;4.940;2023-04-01T18:28:11;9.90;99.90
40255;DHT22;25973;52.368;4.940;2023-04-01T18:29:55;9.90;99.90
40255;DHT22;25973;52.368;4.940;2023-04-01T18:37:21;9.80;99.90
40255;DHT22;25973;52.368;4.940;2023-04-01T18:45:10;9.80;99.90
40255;DHT22;25973;52.368;4.940;2023-04-01T18:47:54;9.80;99.90
40255;DHT22;25973;52.368;4.940;2023-04-01T18:56:02;9.70;99.90
40255;DHT22;25973;52.368;4.940;2023-04-01T19:03:32;9.60;99.90
40255;DHT22;25973;52.368;4.940;2023-04-01T19:05:59;9.60;99.90
40255;DHT22;25973;52.368;4.940;2023-04-01T19:08:31;9.60;99.90
40255;DHT22;25973;52.368;4.940;2023-04-01T19:13:47;9.50;99.90
40255;DHT22;25973;52.368;4.940;2023-04-01T19:16:33;9.40;99.90
40255;DHT22;25973;52.368;4.940;2023-04-01T19:19:11;9.40;99.90
40255;DHT22;25973;52.368;4.940;2023-04-01T19:21:41;9.40;99.90
40255;DHT22;25973;52.368;4.940;2023-04-01T19:36:58;9.30;99.90
40255;DHT22;25973;52.368;4.940;2023-04-01T19:44:56;9.20;99.90
40255;DHT22;25973;52.368;4.940;2023-04-01T19:52:44;9.10;99.90
40255;DHT22;25973;52.368;4.940;2023-04-01T20:07:48;9.00;99.90
40255;DHT22;25973;52.368;4.940;2023-04-01T20:10:17;9.00;99.90
40255;DHT22;25973;52.368;4.940;2023-04-01T20:15:26;8.90;99.90
40255;DHT22;25973;52.368;4.940;2023-04-01T20:17:53;8.80;99.90
40255;DHT22;25973;52.368;4.940;2023-04-01T20:20:21;8.80;99.90
40255;DHT22;25973;52.368;4.940;2023-04-01T20:25:46;8.60;99.90
40255;DHT22;25973;52.368;4.940;2023-04-01T20:35:47;8.60;99.90
40255;DHT22;25973;52.368;4.940;2023-04-01T20:40:51;8.60;99.90
40255;DHT22;25973;52.368;4.940;2023-04-01T20:43:36;8.50;99.90
40255;DHT22;25973;52.368;4.940;2023-04-01T20:46:08;8.50;99.90
40255;DHT22;25973;52.368;4.940;2023-04-01T20:51:15;8.40;99.90
40255;DHT22;25973;52.368;4.940;2023-04-01T20:53:43;8.40;99.90
40255;DHT22;25973;52.368;4.940;2023-04-01T20:56:29;8.40;99.90
40255;DHT22;25973;52.368;4.940;2023-04-01T20:59:03;8.30;99.90
40255;DHT22;25973;52.368;4.940;2023-04-01T21:04:27;8.20;99.90
40255;DHT22;25973;52.368;4.940;2023-04-01T21:17:58;8.10;99.90
40255;DHT22;25973;52.368;4.940;2023-04-01T21:25:21;8.00;99.90
40255;DHT22;25973;52.368;4.940;2023-04-01T21:30:35;8.00;99.90
40255;DHT22;25973;52.368;4.940;2023-04-01T21:38:36;8.10;99.90
40255;DHT22;25973;52.368;4.940;2023-04-01T21:53:56;8.00;99.90
40255;DHT22;25973;52.368;4.940;2023-04-01T21:56:37;8.00;99.90
40255;DHT22;25973;52.368;4.940;2023-04-01T21:59:13;7.90;99.90
40255;DHT22;25973;52.368;4.940;2023-04-01T22:01:49;7.90;99.90
40255;DHT22;25973;52.368;4.940;2023-04-01T22:06:50;7.90;99.90
40255;DHT22;25973;52.368;4.940;2023-04-01T22:09:25;8.00;99.90
40255;DHT22;25973;52.368;4.940;2023-04-01T22:12:03;8.00;99.90
40255;DHT22;25973;52.368;4.940;2023-04-01T22:15:40;8.00;99.90
40255;DHT22;25973;52.368;4.940;2023-04-01T22:17:38;8.00;99.90
40255;DHT22;25973;52.368;4.940;2023-04-01T22:22:59;8.00;99.90
40255;DHT22;25973;52.368;4.940;2023-04-01T22:25:37;8.00;99.90
40255;DHT22;25973;52.368;4.940;2023-04-01T22:30:53;7.90;99.90
40255;DHT22;25973;52.368;4.940;2023-04-01T22:38:26;7.80;99.90
40255;DHT22;25973;52.368;4.940;2023-04-01T22:41:05;7.80;99.90
40255;DHT22;25973;52.368;4.940;2023-04-01T22:43:42;7.90;99.90
40255;DHT22;25973;52.368;4.940;2023-04-01T22:48:51;7.90;99.90
40255;DHT22;25973;52.368;4.940;2023-04-01T22:51:39;7.90;99.90
40255;DHT22;25973;52.368;4.940;2023-04-01T22:54:14;7.80;99.90
40255;DHT22;25973;52.368;4.940;2023-04-01T22:56:43;7.80;99.90
40255;DHT22;25973;52.368;4.940;2023-04-01T23:01:41;7.70;99.90
40255;DHT22;25973;52.368;4.940;2023-04-01T23:04:09;7.70;99.90
40255;DHT22;25973;52.368;4.940;2023-04-01T23:06:38;7.70;99.90
40255;DHT22;25973;52.368;4.940;2023-04-01T23:16:46;7.60;99.90
40255;DHT22;25973;52.368;4.940;2023-04-01T23:19:17;7.70;99.90
40255;DHT22;25973;52.368;4.940;2023-04-01T23:21:47;7.60;99.90
40255;DHT22;25973;52.368;4.940;2023-04-01T23:26:53;7.70;99.90
40255;DHT22;25973;52.368;4.940;2023-04-01T23:29:19;7.60;99.90
40255;DHT22;25973;52.368;4.940;2023-04-01T23:31:56;7.60;99.90
40255;DHT22;25973;52.368;4.940;2023-04-01T23:34:29;7.60;99.90
40255;DHT22;25973;52.368;4.940;2023-04-01T23:36:56;7.60;99.90
40255;DHT22;25973;52.368;4.940;2023-04-01T23:41:48;7.60;99.90
40255;DHT22;25973;52.368;4.940;2023-04-01T23:44:14;7.60;99.90
40255;DHT22;25973;52.368;4.940;2023-04-01T23:46:40;7.60;99.90
40255;DHT22;25973;52.368;4.940;2023-04-01T23:49:12;7.60;99.90
40255;DHT22;25973;52.368;4.940;2023-04-01T23:51:39;7.60;99.90
40255;DHT22;25973;52.368;4.940;2023-04-01T23:56:56;7.50;99.90
40255;DHT22;25973;52.368;4.940;2023-04-01T23:59:29;7.50;99.90
